KAOH/AOH METAR and TAF weather

Enter ICAO airport designator
Station Type Date Time Source
KAOH METAR 2021/09/24 02:53 UTC NOAA

KAOH 240253Z AUTO 24008KT 10SM OVC065 12/08 A2997 RMK AO2 SLP152 60002 T01170083 53009 $


Station Type Date Time Source
KAOH Decoded METAR 2021/09/24 02:53 UTC NOAA

LIMA ALLEN COUNTY AIRPORT, OH, United States (KAOH) 40-42N 84-01W 296M
Sep 23, 2021 - 10:53 PM EDT / 2021.09.24 0253 UTC
Wind: from the WSW (240 degrees) at 9 MPH (8 KT):0
Visibility: 10 mile(s):0
Sky conditions: overcast
Temperature: 53.1 F (11.7 C)
Dew Point: 46.9 F (8.3 C)
Relative Humidity: 79%
Pressure (altimeter): 29.97 in. Hg (1014 hPa)
Pressure tendency: 0.03 inches (0.9 hPa) higher than three hours ago
ob: KAOH 240253Z AUTO 24008KT 10SM OVC065 12/08 A2997 RMK AO2 SLP152 60002 T01170083 53009
cycle: 3

Station Type Date Time Source
KAOH TAF UTC NOAA

Error!

Example: see airport list